Time;durP1;ratioP1;P1;durP2;ratioP2;P2;SDS_P1;SDS_P2;PMS_P1;PMS_P2;Temp;Humidity;BMP_temperature;BMP_pressure;BME280_temperature;BME280_humidity;BME280_pressure;Samples;Min_cycle;Max_cycle;Signal;HPM_P1;HPM_P2
2021/10/09 00:01:26;;;;;;;23.80;12.93;;;;;;;3.28;65.57;101269.66;5072218;28;20044;-63
2021/10/09 00:03:52;;;;;;;25.23;11.85;;;;;;;3.29;65.61;101266.06;5071653;28;20493;-63
2021/10/09 00:06:19;;;;;;;25.13;13.38;;;;;;;3.27;65.90;101258.34;5072075;28;20090;-64
2021/10/09 00:08:45;;;;;;;20.17;13.07;;;;;;;3.26;65.72;101259.28;5071700;28;20040;-63
2021/10/09 00:11:19;;;;;;;26.02;13.68;;;;;;;3.24;65.62;101263.88;5071693;28;20057;-63
2021/10/09 00:13:46;;;;;;;29.67;12.32;;;;;;;3.24;65.90;101263.88;5071250;28;20079;-63
2021/10/09 00:16:12;;;;;;;21.48;11.90;;;;;;;3.15;65.78;101246.41;5037250;28;20066;-63
2021/10/09 00:18:38;;;;;;;19.92;11.98;;;;;;;3.16;65.90;101256.72;5071542;28;20037;-63
2021/10/09 00:21:04;;;;;;;21.98;12.50;;;;;;;3.20;65.94;101259.88;5071964;28;20054;-63
2021/10/09 00:23:30;;;;;;;28.35;12.98;;;;;;;3.19;65.88;101264.28;5071375;28;20040;-63
2021/10/09 00:25:56;;;;;;;22.52;12.05;;;;;;;3.16;65.92;101256.72;5071948;28;20158;-64
2021/10/09 00:28:22;;;;;;;27.83;14.38;;;;;;;3.16;66.15;101253.28;5071347;28;20028;-64
2021/10/09 00:30:48;;;;;;;25.67;14.55;;;;;;;3.10;66.11;101249.44;5037113;28;20036;-63
2021/10/09 00:33:14;;;;;;;28.15;15.50;;;;;;;3.09;66.35;101254.81;5069969;28;20047;-63
2021/10/09 00:35:40;;;;;;;22.52;14.00;;;;;;;3.07;66.18;101252.34;5070262;28;20040;-64
2021/10/09 00:38:05;;;;;;;25.73;13.68;;;;;;;3.07;66.07;101252.34;5069997;28;20568;-64
2021/10/09 00:40:32;;;;;;;19.92;13.13;;;;;;;3.06;66.00;101253.31;5070308;28;20052;-63
2021/10/09 00:42:58;;;;;;;23.85;13.55;;;;;;;3.04;66.20;101255.25;5071809;28;20113;-64
2021/10/09 00:45:24;;;;;;;22.65;13.88;;;;;;;3.05;65.93;101253.44;5053257;28;20063;-64
2021/10/09 00:47:51;;;;;;;25.25;13.82;;;;;;;3.03;66.21;101245.75;5070312;28;20048;-62
2021/10/09 00:50:17;;;;;;;21.90;13.10;;;;;;;3.01;65.91;101244.22;5069895;28;20063;-64
2021/10/09 00:52:44;;;;;;;21.60;11.07;;;;;;;3.03;66.06;101243.13;5070390;28;20490;-63
2021/10/09 00:55:10;;;;;;;27.80;12.75;;;;;;;3.03;65.84;101240.50;5049791;28;20107;-64
2021/10/09 00:57:38;;;;;;;23.85;13.55;;;;;;;3.00;66.25;101246.03;5050184;28;20041;-63
2021/10/09 01:00:05;;;;;;;23.42;12.52;;;;;;;2.95;65.72;101235.97;5046903;28;20064;-63
2021/10/09 01:02:35;;;;;;;20.20;11.18;;;;;;;2.92;66.02;101232.81;5033549;28;20091;-63
2021/10/09 01:05:03;;;;;;;18.30;12.63;;;;;;;2.93;66.16;101237.06;5050073;28;20049;-63
2021/10/09 01:07:29;;;;;;;21.63;11.02;;;;;;;2.94;66.29;101236.94;5070169;28;20049;-63
2021/10/09 01:09:55;;;;;;;21.95;12.32;;;;;;;2.95;66.37;101240.38;5069490;28;20048;-63
2021/10/09 01:12:21;;;;;;;22.58;12.70;;;;;;;2.96;66.35;101240.22;5070093;28;20055;-62
2021/10/09 01:14:46;;;;;;;24.15;12.48;;;;;;;2.95;66.44;101240.38;5069606;28;20051;-63
2021/10/09 01:17:14;;;;;;;20.13;11.90;;;;;;;2.93;66.10;101232.66;5070036;28;20490;-63
2021/10/09 01:19:42;;;;;;;26.40;13.50;;;;;;;2.94;66.42;101233.47;5033427;28;20051;-63
2021/10/09 01:22:09;;;;;;;32.35;17.08;;;;;;;2.92;66.58;101238.88;5033377;28;20049;-63
2021/10/09 01:24:39;;;;;;;25.65;13.75;;;;;;;2.85;66.68;101232.53;5063097;28;20033;-64
2021/10/09 01:27:07;;;;;;;23.60;13.52;;;;;;;2.83;67.06;101228.44;5055905;28;20552;-63
2021/10/09 01:29:33;;;;;;;21.88;11.48;;;;;;;2.79;66.82;101227.84;5020497;28;20053;-63
2021/10/09 01:31:59;;;;;;;21.70;12.07;;;;;;;2.82;66.26;101234.63;5053981;28;20045;-63
2021/10/09 01:34:28;;;;;;;22.52;12.70;;;;;;;2.85;66.50;101236.94;5065283;28;20044;-63
2021/10/09 01:37:08;;;;;;;17.58;10.25;;;;;;;2.90;66.18;101227.69;5073780;28;20048;-63
2021/10/09 01:39:43;;;;;;;20.63;10.80;;;;;;;2.91;66.14;101229.38;5053749;28;20033;-62
2021/10/09 01:42:10;;;;;;;16.35;9.52;;;;;;;2.92;65.93;101228.38;5036872;28;20056;-63
2021/10/09 01:44:36;;;;;;;18.80;11.45;;;;;;;2.95;66.04;101220.25;5066602;28;20044;-64
2021/10/09 01:47:03;;;;;;;19.00;11.30;;;;;;;2.99;65.81;101220.78;5073528;28;20040;-63
2021/10/09 01:49:32;;;;;;;;;;;;;;;2.98;65.89;101219.13;5073615;28;20055;-63
2021/10/09 01:52:04;;;;;;;20.80;11.10;;;;;;;2.98;66.03;101218.31;5073388;28;19931;-63
2021/10/09 01:54:30;;;;;;;17.35;10.43;;;;;;;2.93;65.90;101222.19;5072955;28;20041;-63
2021/10/09 01:56:56;;;;;;;23.30;11.45;;;;;;;2.86;66.35;101217.66;5073355;28;20358;-63
2021/10/09 01:59:22;;;;;;;23.00;11.60;;;;;;;2.80;66.69;101213.00;5072933;28;20048;-63
2021/10/09 02:01:53;;;;;;;20.35;11.45;;;;;;;2.78;66.61;101215.75;5057122;28;20045;-63
2021/10/09 02:04:24;;;;;;;21.60;11.63;;;;;;;2.77;66.58;101215.91;5052772;28;20036;-64
2021/10/09 02:06:49;;;;;;;19.80;10.90;;;;;;;2.74;66.84;101209.16;5069740;28;20045;-63
2021/10/09 02:09:17;;;;;;;19.48;11.18;;;;;;;2.68;66.84;101207.09;5057300;28;20887;-63
2021/10/09 02:11:48;;;;;;;20.30;10.82;;;;;;;2.70;66.51;101205.13;5073209;28;20049;-63
2021/10/09 02:27:20;;;;;;;16.65;11.23;;;;;;;2.57;67.33;101199.41;5072794;28;20047;-64
2021/10/09 02:29:46;;;;;;;28.27;11.45;;;;;;;2.56;67.34;101195.97;5072309;28;20599;-63
2021/10/09 02:32:13;;;;;;;21.83;12.68;;;;;;;2.53;67.25;101196.25;5072686;28;20045;-64
2021/10/09 02:34:39;;;;;;;19.52;11.90;;;;;;;2.50;67.16;101183.44;5072655;28;20413;-63
2021/10/09 02:37:05;;;;;;;22.90;12.95;;;;;;;2.52;67.21;101188.50;5072217;28;20044;-63
2021/10/09 02:39:35;;;;;;;24.95;11.32;;;;;;;2.48;67.11;101174.88;5072190;28;20062;-63
2021/10/09 02:42:01;;;;;;;26.80;12.77;;;;;;;2.48;67.41;101182.75;5072309;28;20056;-63
2021/10/09 02:44:27;;;;;;;22.88;11.40;;;;;;;2.46;66.79;101184.66;5055402;28;20130;-63
2021/10/09 02:46:53;;;;;;;22.00;11.00;;;;;;;2.45;67.10;101177.78;5072367;28;20417;-64
2021/10/09 02:49:19;;;;;;;18.85;12.50;;;;;;;2.42;67.14;101176.28;5072295;28;20040;-63
2021/10/09 02:51:45;;;;;;;21.80;12.63;;;;;;;2.43;67.00;101177.91;5052035;28;20049;-63
2021/10/09 02:54:11;;;;;;;29.73;14.27;;;;;;;2.40;67.51;101175.56;5068862;28;20072;-63
2021/10/09 02:56:37;;;;;;;24.05;13.57;;;;;;;2.38;67.43;101169.69;5069400;28;20150;-63
2021/10/09 02:59:04;;;;;;;25.60;11.77;;;;;;;2.32;67.37;101172.81;5072031;28;20040;-63
2021/10/09 03:01:31;;;;;;;21.05;11.77;;;;;;;2.34;67.30;101172.69;5051964;28;20043;-63
2021/10/09 03:03:57;;;;;;;20.83;12.43;;;;;;;2.36;67.54;101170.78;5052058;28;20525;-63
2021/10/09 03:06:26;;;;;;;24.58;12.25;;;;;;;2.34;67.49;101168.28;5064726;28;20528;-63
2021/10/09 03:08:52;;;;;;;24.98;12.52;;;;;;;2.33;67.38;101171.88;5071687;28;20040;-63
2021/10/09 03:11:18;;;;;;;28.67;13.48;;;;;;;2.30;67.55;101166.94;5071808;28;20072;-63
2021/10/09 03:13:45;;;;;;;28.25;13.93;;;;;;;2.27;67.85;101172.44;5072033;28;20117;-63
2021/10/09 03:16:13;;;;;;;27.30;13.40;;;;;;;2.27;67.79;101170.66;5063053;28;20132;-63
2021/10/09 03:18:39;;;;;;;28.30;14.70;;;;;;;2.25;67.66;101169.94;5051676;28;20136;-63
2021/10/09 03:21:05;;;;;;;23.42;12.60;;;;;;;2.25;67.88;101177.81;5037804;28;20051;-64
2021/10/09 03:23:33;;;;;;;25.75;13.73;;;;;;;2.21;67.93;101165.16;5034886;28;20102;-63
2021/10/09 03:25:59;;;;;;;33.88;15.55;;;;;;;2.20;68.24;101168.72;5038845;28;20040;-63
2021/10/09 03:28:24;;;;;;;21.02;12.98;;;;;;;2.14;68.54;101172.72;5071393;28;20127;-62
2021/10/09 03:30:52;;;;;;;26.30;14.20;;;;;;;2.13;68.50;101176.31;5071150;28;20490;-62
2021/10/09 03:33:18;;;;;;;29.17;12.65;;;;;;;2.12;68.49;101173.81;5071225;28;20044;-63
2021/10/09 03:35:44;;;;;;;22.83;13.48;;;;;;;2.10;68.73;101175.75;5072595;28;20048;-62
2021/10/09 03:38:10;;;;;;;24.90;12.63;;;;;;;2.08;69.07;101167.22;5072758;28;20045;-63
2021/10/09 03:40:36;;;;;;;21.17;12.77;;;;;;;2.10;68.65;101176.56;5071213;28;20131;-64
2021/10/09 03:43:10;;;;;;;21.25;11.68;;;;;;;2.11;68.68;101172.16;5051084;28;20049;-62
2021/10/09 03:45:51;;;;;;;25.88;13.55;;;;;;;2.11;68.58;101177.41;5052795;28;20087;-62
2021/10/09 03:53:32;;;;;;;18.73;11.35;;;;;;;2.12;68.36;101168.56;5070992;28;20139;-62
2021/10/09 03:55:58;;;;;;;21.58;11.60;;;;;;;2.18;68.78;101171.50;5071022;28;20040;-63
2021/10/09 03:58:25;;;;;;;21.25;12.35;;;;;;;2.17;68.75;101167.19;5034185;28;20040;-62
2021/10/09 04:00:51;;;;;;;24.15;12.02;;;;;;;2.20;68.55;101163.47;5050871;28;20059;-62
2021/10/09 04:03:17;;;;;;;19.83;11.27;;;;;;;2.23;68.32;101165.81;5069280;28;20044;-62
2021/10/09 04:05:43;;;;;;;18.13;11.23;;;;;;;2.27;68.14;101165.41;5070768;28;20051;-62
2021/10/09 04:08:11;;;;;;;27.73;11.43;;;;;;;2.26;68.12;101160.31;5070401;28;20105;-61
2021/10/09 04:10:39;;;;;;;23.05;12.18;;;;;;;2.30;68.28;101166.94;5070420;28;20095;-62
2021/10/09 04:13:05;;;;;;;22.50;12.48;;;;;;;2.32;68.05;101167.59;5071550;28;20047;-62
2021/10/09 04:15:33;;;;;;;22.80;12.02;;;;;;;2.31;67.99;101160.72;5037685;28;20502;-62
2021/10/09 04:17:59;;;;;;;27.92;13.98;;;;;;;2.36;67.94;101168.97;5070438;28;20563;-63
2021/10/09 04:20:26;;;;;;;28.35;13.30;;;;;;;2.37;67.80;101161.94;5070517;28;20048;-63
2021/10/09 04:22:52;;;;;;;25.17;13.50;;;;;;;2.41;67.88;101171.16;5071773;28;20048;-62
2021/10/09 04:25:18;;;;;;;30.95;13.40;;;;;;;2.42;67.68;101172.84;5053677;28;20043;-63
2021/10/09 04:27:45;;;;;;;24.88;12.98;;;;;;;2.46;67.71;101163.72;5070330;28;20110;-63
2021/10/09 04:30:11;;;;;;;30.20;13.43;;;;;;;2.52;67.47;101167.56;5070368;28;20040;-63
2021/10/09 04:32:37;;;;;;;19.20;11.93;;;;;;;2.58;67.15;101162.59;5070127;28;20052;-62
2021/10/09 04:35:06;;;;;;;26.42;12.23;;;;;;;2.59;66.77;101169.50;5070322;28;20044;-63
2021/10/09 04:37:32;;;;;;;25.45;13.27;;;;;;;2.62;67.09;101178.88;5050189;28;20048;-62
2021/10/09 04:39:58;;;;;;;45.13;15.88;;;;;;;2.64;67.82;101169.88;5050098;28;20040;-64
2021/10/09 04:42:25;;;;;;;46.08;15.90;;;;;;;2.67;67.14;101177.44;5070011;28;20049;-62
2021/10/09 04:44:52;;;;;;;37.25;14.85;;;;;;;2.70;66.97;101171.09;5070067;28;20043;-62
2021/10/09 04:47:20;;;;;;;43.42;16.42;;;;;;;2.76;66.96;101177.56;5069840;28;20056;-64
2021/10/09 04:49:45;;;;;;;31.67;14.57;;;;;;;2.79;66.40;101174.66;5069942;28;20134;-62
2021/10/09 04:52:11;;;;;;;27.23;13.57;;;;;;;2.85;66.61;101177.53;5069820;28;20417;-64
2021/10/09 04:54:38;;;;;;;29.67;13.90;;;;;;;2.83;66.14;101170.81;5053733;28;20075;-63
2021/10/09 04:57:04;;;;;;;18.38;12.45;;;;;;;2.93;66.42;101176.81;5069863;28;20037;-64
2021/10/09 04:59:30;;;;;;;22.27;12.40;;;;;;;2.97;66.42;101178.16;5053301;28;20495;-63
2021/10/09 05:01:56;;;;;;;22.95;12.43;;;;;;;2.99;66.23;101178.03;5016411;28;20037;-63
2021/10/09 05:04:24;;;;;;;21.30;13.27;;;;;;;3.06;66.63;101182.56;5032998;28;20041;-65
2021/10/09 05:06:53;;;;;;;24.20;12.63;;;;;;;3.15;65.81;101180.88;5053507;28;20116;-64
2021/10/09 05:09:20;;;;;;;22.27;13.00;;;;;;;3.15;65.73;101176.47;5053292;28;20052;-63
2021/10/09 05:11:45;;;;;;;24.88;12.32;;;;;;;3.18;65.58;101177.97;5070120;28;20167;-64
2021/10/09 05:14:11;;;;;;;24.73;12.75;;;;;;;3.26;65.33;101179.84;5069902;28;20048;-63
2021/10/09 05:16:39;;;;;;;27.70;13.55;;;;;;;3.30;65.63;101178.59;5069759;28;20533;-64
2021/10/09 05:19:04;;;;;;;22.17;12.73;;;;;;;3.34;65.37;101175.53;5069446;28;20052;-63
2021/10/09 05:21:32;;;;;;;25.73;12.52;;;;;;;3.40;64.77;101167.06;5069843;28;20123;-64
2021/10/09 05:23:58;;;;;;;21.58;12.93;;;;;;;3.46;65.31;101165.66;5069389;28;20148;-64
2021/10/09 05:26:26;;;;;;;22.05;11.63;;;;;;;3.49;64.26;101159.31;5053376;28;20045;-63
2021/10/09 05:28:53;;;;;;;20.67;11.95;;;;;;;3.63;64.60;101164.88;5049264;28;20080;-62
2021/10/09 05:31:31;;;;;;;;;;;;;;;3.76;63.81;101169.75;5034029;28;20091;-63
2021/10/09 05:33:58;;;;;;;21.75;10.95;;;;;;;3.86;64.09;101164.44;5017741;28;19924;-63
2021/10/09 05:36:27;;;;;;;20.65;10.93;;;;;;;3.87;63.20;101168.69;5049456;28;20040;-63
2021/10/09 05:38:53;;;;;;;24.60;12.30;;;;;;;3.81;63.19;101171.94;5066204;28;20453;-63
2021/10/09 05:41:20;;;;;;;20.40;12.00;;;;;;;3.80;63.90;101176.34;5069533;28;20049;-63
2021/10/09 05:43:51;;;;;;;22.50;12.00;;;;;;;3.76;63.18;101182.84;5049938;28;20084;-63
2021/10/09 05:46:18;;;;;;;21.38;11.63;;;;;;;3.83;63.37;101178.69;5032877;28;20080;-64
2021/10/09 05:48:44;;;;;;;19.80;11.75;;;;;;;3.93;63.26;101169.91;5063392;28;20049;-63
2021/10/09 05:56:27;;;;;;;17.70;10.73;;;;;;;4.12;62.48;101171.53;5036272;28;20131;-64
2021/10/09 07:01:34;;;;;;;22.48;12.88;;;;;;;5.92;60.56;101160.88;5052120;28;20044;-63
2021/10/09 07:04:00;;;;;;;27.92;15.07;;;;;;;6.06;60.11;101169.13;5048300;28;20191;-64
2021/10/09 07:06:28;;;;;;;26.92;14.25;;;;;;;6.11;60.42;101172.91;5068573;28;20053;-66
2021/10/09 07:09:00;;;;;;;24.25;12.73;;;;;;;6.19;59.86;101160.75;5071737;28;20133;-63
2021/10/09 07:11:52;;;;;;;23.27;12.90;;;;;;;6.29;59.73;101164.03;5069165;28;20486;-67
2021/10/09 07:14:18;;;;;;;30.02;16.95;;;;;;;6.38;59.92;101160.38;5072977;28;20037;-63
2021/10/09 07:16:44;;;;;;;24.10;12.35;;;;;;;6.47;59.43;101161.19;5071757;28;20044;-65
2021/10/09 07:19:10;;;;;;;21.45;11.65;;;;;;;6.57;58.81;101167.94;5051522;28;20037;-64
2021/10/09 07:21:39;;;;;;;21.35;11.82;;;;;;;6.67;58.75;101165.13;5019629;28;20037;-63
2021/10/09 07:24:05;;;;;;;19.27;10.90;;;;;;;6.73;58.31;101167.09;5062931;28;20187;-63
2021/10/09 07:26:32;;;;;;;26.65;12.68;;;;;;;6.81;58.18;101161.78;5071745;28;20048;-64
2021/10/09 07:28:58;;;;;;;21.13;10.75;;;;;;;6.89;58.17;101162.78;5051202;28;20041;-65
2021/10/09 07:31:23;;;;;;;17.25;9.98;;;;;;;6.96;58.05;101156.63;5051373;28;20414;-65
2021/10/09 07:33:49;;;;;;;19.95;10.43;;;;;;;7.09;58.09;101163.19;5060326;28;20040;-63
2021/10/09 07:36:16;;;;;;;20.02;10.88;;;;;;;7.20;57.63;101163.63;5038260;28;20126;-64
2021/10/09 07:38:43;;;;;;;24.45;11.98;;;;;;;7.30;57.41;101167.91;5070945;28;20063;-63
2021/10/09 07:41:09;;;;;;;20.95;10.52;;;;;;;7.38;56.59;101166.03;5072464;28;20040;-64
2021/10/09 07:43:35;;;;;;;15.90;10.45;;;;;;;7.44;56.54;101157.44;5070701;28;20046;-64
2021/10/09 07:46:01;;;;;;;19.20;11.40;;;;;;;7.56;56.75;101157.88;5021336;28;20131;-64
2021/10/09 07:48:26;;;;;;;18.20;10.73;;;;;;;7.66;56.19;101158.44;5072261;28;20498;-63
2021/10/09 07:50:52;;;;;;;17.98;10.35;;;;;;;7.73;55.48;101155.91;5070889;28;20040;-65
2021/10/09 07:53:18;;;;;;;20.25;11.57;;;;;;;7.84;55.98;101155.53;5070852;28;20049;-64
2021/10/09 07:55:44;;;;;;;19.23;10.32;;;;;;;7.92;55.62;101154.66;5071984;28;20051;-65
2021/10/09 07:58:10;;;;;;;15.57;9.35;;;;;;;7.95;55.33;101151.66;5070981;28;20045;-63
2021/10/09 08:00:36;;;;;;;14.73;9.18;;;;;;;8.09;54.81;101153.53;5071868;28;20421;-64
2021/10/09 08:03:04;;;;;;;15.65;9.45;;;;;;;8.18;54.05;101163.03;5072132;28;20553;-66
2021/10/09 08:05:34;;;;;;;20.73;9.93;;;;;;;8.26;54.39;101159.47;5050618;28;20422;-63
2021/10/09 08:08:01;;;;;;;12.88;9.13;;;;;;;8.31;54.18;101158.94;5052258;28;20076;-63
2021/10/09 08:10:28;;;;;;;17.88;9.75;;;;;;;8.39;54.23;101162.38;5045709;28;20147;-64
2021/10/09 08:12:54;;;;;;;13.18;8.80;;;;;;;8.49;53.84;101162.09;5070196;28;20565;-63
2021/10/09 08:15:20;;;;;;;15.38;9.55;;;;;;;8.52;54.16;101159.09;5070168;28;20140;-65
2021/10/09 08:17:47;;;;;;;14.60;8.52;;;;;;;8.61;53.74;101159.84;5071274;28;20430;-63
2021/10/09 08:20:13;;;;;;;15.00;8.43;;;;;;;8.67;53.46;101158.28;5070946;28;20098;-66
2021/10/09 08:22:45;;;;;;;13.77;9.00;;;;;;;8.75;54.18;101153.75;5053184;28;20036;-65
2021/10/09 08:25:43;;;;;;;15.48;8.82;;;;;;;8.83;53.34;101147.56;5069925;28;20159;-65
2021/10/09 08:38:57;;;;;;;21.83;9.32;;;;;;;9.24;52.13;101141.78;5069721;28;20068;-63
2021/10/09 08:41:23;;;;;;;10.93;8.10;;;;;;;9.27;52.29;101136.91;5069962;28;20083;-65
2021/10/09 08:43:50;;;;;;;16.75;8.82;;;;;;;9.36;52.61;101142.94;5071530;28;20211;-64
2021/10/09 08:46:18;;;;;;;13.20;8.50;;;;;;;9.45;51.64;101154.22;5069996;28;20040;-63
2021/10/09 08:48:48;;;;;;;11.68;7.45;;;;;;;9.47;51.57;101145.09;5053412;28;20068;-64
2021/10/09 08:51:26;;;;;;;15.07;8.07;;;;;;;9.56;51.56;101145.81;5017601;28;20045;-64
2021/10/09 08:53:53;;;;;;;14.30;7.10;;;;;;;9.62;51.82;101142.41;5051187;28;20033;-63
2021/10/09 08:56:31;;;;;;;10.32;6.05;;;;;;;9.68;49.21;101143.47;5069292;28;20456;-64
2021/10/09 08:59:28;;;;;;;11.70;6.78;;;;;;;9.74;49.00;101142.72;5071520;28;20048;-63
2021/10/09 09:02:12;;;;;;;11.93;6.85;;;;;;;9.80;49.25;101135.84;5053256;28;20045;-64
2021/10/09 09:40:04;;;;;;;7.07;4.88;;;;;;;10.23;44.42;101121.56;5070479;28;20040;-65
2021/10/09 09:42:30;;;;;;;6.30;4.63;;;;;;;10.26;44.33;101119.50;5070717;28;20048;-64
2021/10/09 09:44:59;;;;;;;7.80;4.50;;;;;;;10.30;43.92;101113.69;5069505;28;20127;-64
2021/10/09 09:47:36;;;;;;;9.05;4.25;;;;;;;10.36;44.29;101112.09;5070798;28;20510;-64
2021/10/09 09:50:10;;;;;;;6.63;3.97;;;;;;;10.40;44.16;101111.47;5074323;28;20048;-66
2021/10/09 09:52:38;;;;;;;6.55;4.18;;;;;;;10.46;44.17;101120.50;5074592;28;20044;-64
2021/10/09 09:55:06;;;;;;;6.88;4.10;;;;;;;10.50;43.98;101105.84;5036312;28;20568;-64
2021/10/09 09:57:34;;;;;;;5.97;4.15;;;;;;;10.56;43.81;101113.03;5054525;28;20414;-66
2021/10/09 10:00:05;;;;;;;10.75;4.22;;;;;;;10.56;43.53;101097.13;5056921;28;20076;-65
2021/10/09 10:02:42;;;;;;;12.23;5.40;;;;;;;10.66;43.47;101099.41;5073283;28;20060;-65
2021/10/09 10:05:08;;;;;;;;;;;;;;;10.76;43.35;101104.34;5074438;28;20049;-66
2021/10/09 10:07:35;;;;;;;9.02;4.10;;;;;;;10.80;43.63;101106.44;5056392;28;19927;-66
2021/10/09 10:10:02;;;;;;;7.53;4.10;;;;;;;10.86;43.67;101102.97;5039704;28;20063;-64
2021/10/09 10:12:29;;;;;;;7.97;4.38;;;;;;;10.88;42.63;101097.47;5039794;28;20083;-64
2021/10/09 10:14:56;;;;;;;7.00;4.38;;;;;;;10.93;42.50;101110.97;5072982;28;20040;-64
2021/10/09 10:17:41;;;;;;;9.38;4.90;;;;;;;10.95;42.38;101108.94;5073922;28;20045;-64
2021/10/09 10:20:11;;;;;;;7.57;4.32;;;;;;;11.02;41.82;101103.66;5073773;28;20048;-63
2021/10/09 10:22:37;;;;;;;8.20;4.32;;;;;;;11.03;41.71;101103.47;5072895;28;20040;-64
2021/10/09 10:25:21;;;;;;;9.30;4.65;;;;;;;11.06;41.03;101100.41;5073775;28;20047;-65
2021/10/09 10:28:07;;;;;;;8.00;4.55;;;;;;;11.07;41.51;101103.88;5073739;28;20036;-64
2021/10/09 10:30:34;;;;;;;9.52;5.03;;;;;;;11.08;42.00;101103.66;5072247;28;20048;-64
2021/10/09 10:33:01;;;;;;;6.20;4.20;;;;;;;11.13;41.74;101095.13;5072517;28;20131;-65
2021/10/09 10:35:30;;;;;;;6.93;4.68;;;;;;;11.19;41.26;101101.47;5052247;28;20041;-65
2021/10/09 10:38:05;;;;;;;9.23;5.55;;;;;;;11.22;41.65;101099.25;5052435;28;20056;-65
2021/10/09 10:40:54;;;;;;;11.82;6.00;;;;;;;11.20;42.17;101098.59;5057535;28;20586;-64
2021/10/09 10:45:59;;;;;;;14.52;7.10;;;;;;;11.25;41.17;101092.72;5073685;28;20051;-64
2021/10/09 10:57:01;;;;;;;10.38;6.00;;;;;;;11.31;40.60;101076.78;5072003;28;20568;-64
2021/10/09 10:59:46;;;;;;;11.32;6.00;;;;;;;11.30;41.84;101075.16;5073383;28;20089;-64
2021/10/09 11:02:17;;;;;;;12.32;7.03;;;;;;;11.34;42.42;101076.38;5055486;28;20074;-64
2021/10/09 11:04:52;;;;;;;15.48;7.68;;;;;;;11.40;42.21;101066.00;5073710;28;20083;-65
2021/10/09 11:07:20;;;;;;;11.73;6.60;;;;;;;11.46;41.92;101060.69;5072062;28;20055;-64
2021/10/09 11:09:48;;;;;;;12.88;6.30;;;;;;;11.50;41.60;101061.94;5055015;28;20056;-63
2021/10/09 11:12:23;;;;;;;8.77;6.18;;;;;;;11.50;41.45;101059.28;5072824;28;20089;-63
2021/10/09 11:14:50;;;;;;;15.65;6.72;;;;;;;11.54;41.35;101067.66;5071706;28;20416;-63
2021/10/09 11:17:16;;;;;;;10.95;6.30;;;;;;;11.62;41.18;101066.63;5072565;28;20040;-63
2021/10/09 11:19:49;;;;;;;12.80;5.90;;;;;;;11.64;40.89;101048.66;5073277;28;20051;-64
2021/10/09 11:22:17;;;;;;;11.25;6.63;;;;;;;11.65;41.32;101047.63;5072616;28;20058;-64
2021/10/09 11:24:47;;;;;;;12.27;6.03;;;;;;;11.73;40.52;101055.41;5073162;28;20113;-64
2021/10/09 11:27:15;;;;;;;13.50;6.50;;;;;;;11.75;41.46;101054.19;5072750;28;20059;-64
2021/10/09 11:29:43;;;;;;;16.83;7.18;;;;;;;11.82;41.43;101047.03;5073153;28;20052;-64
2021/10/09 11:32:10;;;;;;;20.30;7.57;;;;;;;11.81;41.83;101033.94;5068394;28;20040;-65
2021/10/09 11:34:52;;;;;;;11.43;6.32;;;;;;;11.87;41.85;101029.69;5071452;28;20044;-65
2021/10/09 11:37:19;;;;;;;12.50;6.40;;;;;;;11.93;42.25;101031.50;5071117;28;20449;-65
2021/10/09 11:39:59;;;;;;;11.45;6.25;;;;;;;11.96;41.95;101026.59;5054244;28;20041;-64
2021/10/09 11:42:31;;;;;;;10.20;6.15;;;;;;;11.98;41.80;101021.91;5072204;28;20576;-64
2021/10/09 11:45:02;;;;;;;11.45;5.90;;;;;;;12.02;41.82;101024.97;5072369;28;20541;-63
2021/10/09 11:55:49;;;;;;;10.35;5.63;;;;;;;12.07;40.57;101019.03;5054354;28;20094;-64
2021/10/09 11:58:15;;;;;;;10.55;5.50;;;;;;;12.10;40.31;101021.28;5071924;28;20044;-64
2021/10/09 12:00:41;;;;;;;10.35;5.18;;;;;;;12.09;40.41;101014.31;5072238;28;20056;-66
2021/10/09 12:03:35;;;;;;;9.15;5.65;;;;;;;12.12;40.63;101014.75;5033704;28;20049;-64
2021/10/09 12:06:11;;;;;;;12.50;5.70;;;;;;;12.12;40.80;101017.41;5051898;28;20049;-64
2021/10/09 12:08:51;;;;;;;8.65;5.20;;;;;;;12.13;40.41;101008.38;5044260;28;20114;-63
2021/10/09 12:11:21;;;;;;;;;;;;;;;12.12;40.37;101001.44;5050261;28;20139;-64
2021/10/09 12:13:55;;;;;;;8.63;5.18;;;;;;;12.13;40.84;100999.59;5048256;28;19927;-64
2021/10/09 12:16:24;;;;;;;10.65;6.15;;;;;;;12.14;40.60;101001.22;5070947;28;20076;-64
2021/10/09 12:18:56;;;;;;;12.18;5.90;;;;;;;12.14;40.63;100990.59;5070364;28;20442;-64
2021/10/09 12:21:29;;;;;;;11.00;6.28;;;;;;;12.10;40.86;100982.22;5037784;28;20052;-64
2021/10/09 12:23:56;;;;;;;8.27;5.18;;;;;;;12.13;40.55;100986.31;5070247;28;20410;-64
2021/10/09 12:26:23;;;;;;;16.40;5.53;;;;;;;12.09;40.32;100987.72;5071580;28;20475;-64
2021/10/09 12:29:07;;;;;;;9.10;5.57;;;;;;;12.11;40.51;100983.84;5071538;28;20044;-64
2021/10/09 12:31:37;;;;;;;8.60;5.45;;;;;;;12.11;40.33;100978.53;5071806;28;20047;-64
2021/10/09 12:34:03;;;;;;;11.18;6.03;;;;;;;12.13;39.79;100979.16;5070088;28;20052;-64
2021/10/09 12:36:33;;;;;;;10.52;5.43;;;;;;;12.13;40.36;100975.69;5070183;28;20049;-65
2021/10/09 12:39:22;;;;;;;11.18;5.07;;;;;;;12.07;39.91;100957.91;5071141;28;20081;-64
2021/10/09 12:41:53;;;;;;;9.43;5.15;;;;;;;12.12;40.60;100969.53;5071433;28;20609;-64
2021/10/09 12:44:20;;;;;;;8.63;5.22;;;;;;;12.12;40.34;100971.38;5069776;28;20084;-64
2021/10/09 12:46:46;;;;;;;7.53;5.28;;;;;;;12.10;40.39;100963.63;5071451;28;20083;-64
2021/10/09 12:49:12;;;;;;;12.38;5.10;;;;;;;12.10;40.30;100960.97;5069796;28;20473;-62
2021/10/09 12:51:39;;;;;;;8.32;4.82;;;;;;;12.10;39.85;100954.81;5071212;28;20052;-64
2021/10/09 12:54:07;;;;;;;8.07;5.00;;;;;;;12.16;40.03;100959.31;5071215;28;20041;-63
2021/10/09 12:56:34;;;;;;;7.80;4.88;;;;;;;12.13;39.91;100957.06;5071175;28;20098;-63
2021/10/09 12:59:00;;;;;;;10.60;5.80;;;;;;;12.13;39.96;100959.72;5033082;28;20037;-64
2021/10/09 13:01:26;;;;;;;8.75;4.60;;;;;;;12.12;39.71;100960.72;5033467;28;20060;-64
2021/10/09 13:03:52;;;;;;;8.20;4.80;;;;;;;12.09;39.62;100956.69;5065893;28;20115;-63
2021/10/09 13:06:18;;;;;;;9.30;5.38;;;;;;;12.07;40.22;100947.28;5069992;28;20178;-64
2021/10/09 13:08:44;;;;;;;8.23;5.00;;;;;;;12.04;40.10;100951.97;5069719;28;20074;-64
2021/10/09 13:11:09;;;;;;;8.45;4.78;;;;;;;12.02;40.40;100950.53;5070007;28;20061;-64
2021/10/09 13:13:36;;;;;;;6.38;5.00;;;;;;;11.97;40.09;100947.69;5071019;28;20034;-64
2021/10/09 13:16:02;;;;;;;7.20;4.93;;;;;;;11.93;40.67;100941.97;5036536;28;20041;-64
2021/10/09 13:18:28;;;;;;;8.55;4.60;;;;;;;11.87;40.23;100942.81;5069573;28;20052;-63
2021/10/09 13:20:53;;;;;;;8.63;5.22;;;;;;;11.77;40.43;100927.28;5071546;28;20044;-65
2021/10/09 13:23:19;;;;;;;13.55;5.00;;;;;;;11.78;40.24;100933.41;5074802;28;20559;-63
2021/10/09 13:25:45;;;;;;;12.43;4.85;;;;;;;11.71;40.65;100929.94;5075114;28;20120;-63
2021/10/09 13:28:11;;;;;;;11.48;4.82;;;;;;;11.65;40.62;100931.59;5073426;28;20091;-64
2021/10/09 13:30:36;;;;;;;8.50;5.13;;;;;;;11.61;40.62;100933.00;5075071;28;20078;-65
2021/10/09 13:33:02;;;;;;;10.82;5.28;;;;;;;11.58;40.80;100933.44;5074743;28;20040;-65
2021/10/09 13:35:29;;;;;;;18.25;5.95;;;;;;;11.54;40.71;100930.38;5057006;28;20556;-64
2021/10/09 13:37:58;;;;;;;14.77;5.82;;;;;;;11.49;41.31;100924.84;5073182;28;20036;-64
2021/10/09 13:40:24;;;;;;;9.05;4.80;;;;;;;11.42;41.69;100913.44;5057230;28;20053;-64
2021/10/09 13:42:50;;;;;;;11.02;5.43;;;;;;;11.37;41.72;100921.19;5074574;28;20098;-64
2021/10/09 13:45:16;;;;;;;9.70;4.80;;;;;;;11.34;41.80;100919.75;5074702;28;20058;-63
2021/10/09 13:47:42;;;;;;;12.45;5.25;;;;;;;11.26;41.84;100917.31;5072929;28;20490;-63
2021/10/09 13:50:09;;;;;;;9.43;5.07;;;;;;;11.25;42.15;100918.31;5074501;28;20049;-65
2021/10/09 13:52:34;;;;;;;8.45;5.00;;;;;;;11.20;42.32;100912.81;5072778;28;20114;-63
2021/10/09 13:55:00;;;;;;;11.30;5.85;;;;;;;11.13;42.43;100918.13;5074696;28;20093;-65
2021/10/09 13:57:26;;;;;;;14.05;5.25;;;;;;;11.07;42.79;100913.63;5072654;28;20344;-65